sensor_id;sensor_type;location;lat;lon;timestamp;P1;durP1;ratioP1;P2;durP2;ratioP2
50585;SDS011;36542;51.700;8.846;2023-02-12T00:01:11;1243.17;;;191.87;;
50585;SDS011;36542;51.700;8.846;2023-02-12T00:03:37;1148.00;;;186.77;;
50585;SDS011;36542;51.700;8.846;2023-02-12T00:06:04;1051.63;;;177.13;;
50585;SDS011;36542;51.700;8.846;2023-02-12T00:08:30;987.93;;;163.87;;
50585;SDS011;36542;51.700;8.846;2023-02-12T00:10:56;885.07;;;151.80;;
50585;SDS011;36542;51.700;8.846;2023-02-12T00:13:22;853.40;;;151.40;;
50585;SDS011;36542;51.700;8.846;2023-02-12T00:15:48;976.87;;;159.43;;
50585;SDS011;36542;51.700;8.846;2023-02-12T00:18:13;981.83;;;163.40;;
50585;SDS011;36542;51.700;8.846;2023-02-12T00:20:39;1044.50;;;167.70;;
50585;SDS011;36542;51.700;8.846;2023-02-12T00:23:05;1171.70;;;180.20;;
50585;SDS011;36542;51.700;8.846;2023-02-12T00:25:31;1100.27;;;175.87;;
50585;SDS011;36542;51.700;8.846;2023-02-12T00:27:57;1156.07;;;184.43;;
50585;SDS011;36542;51.700;8.846;2023-02-12T00:30:22;1080.83;;;171.33;;
50585;SDS011;36542;51.700;8.846;2023-02-12T00:32:48;1233.30;;;175.33;;
50585;SDS011;36542;51.700;8.846;2023-02-12T00:35:13;1343.37;;;197.40;;
50585;SDS011;36542;51.700;8.846;2023-02-12T00:37:40;1153.57;;;175.67;;
50585;SDS011;36542;51.700;8.846;2023-02-12T00:40:05;1050.67;;;165.10;;
50585;SDS011;36542;51.700;8.846;2023-02-12T00:42:31;1002.37;;;153.80;;
50585;SDS011;36542;51.700;8.846;2023-02-12T00:44:57;1173.10;;;173.50;;
50585;SDS011;36542;51.700;8.846;2023-02-12T00:47:22;1149.20;;;167.27;;
50585;SDS011;36542;51.700;8.846;2023-02-12T00:49:48;1206.27;;;176.40;;
50585;SDS011;36542;51.700;8.846;2023-02-12T00:52:13;1296.10;;;181.30;;
50585;SDS011;36542;51.700;8.846;2023-02-12T00:54:39;1300.37;;;184.00;;
50585;SDS011;36542;51.700;8.846;2023-02-12T00:57:04;1055.57;;;157.63;;
50585;SDS011;36542;51.700;8.846;2023-02-12T00:59:30;1033.77;;;153.60;;
50585;SDS011;36542;51.700;8.846;2023-02-12T01:01:56;1152.83;;;165.57;;
50585;SDS011;36542;51.700;8.846;2023-02-12T01:04:22;1287.70;;;176.03;;
50585;SDS011;36542;51.700;8.846;2023-02-12T01:06:48;1119.90;;;160.73;;
50585;SDS011;36542;51.700;8.846;2023-02-12T01:09:13;1001.97;;;147.17;;
50585;SDS011;36542;51.700;8.846;2023-02-12T01:11:39;1142.00;;;159.93;;
50585;SDS011;36542;51.700;8.846;2023-02-12T01:14:05;929.33;;;138.10;;
50585;SDS011;36542;51.700;8.846;2023-02-12T01:16:31;616.70;;;111.03;;
50585;SDS011;36542;51.700;8.846;2023-02-12T01:19:00;802.13;;;132.37;;
50585;SDS011;36542;51.700;8.846;2023-02-12T01:21:26;852.87;;;133.47;;
50585;SDS011;36542;51.700;8.846;2023-02-12T01:23:53;691.07;;;118.47;;
50585;SDS011;36542;51.700;8.846;2023-02-12T01:26:19;712.57;;;124.17;;
50585;SDS011;36542;51.700;8.846;2023-02-12T01:28:52;812.80;;;132.63;;
50585;SDS011;36542;51.700;8.846;2023-02-12T01:31:21;784.57;;;127.30;;
50585;SDS011;36542;51.700;8.846;2023-02-12T01:33:49;661.97;;;119.77;;
50585;SDS011;36542;51.700;8.846;2023-02-12T01:36:16;631.73;;;121.43;;
50585;SDS011;36542;51.700;8.846;2023-02-12T01:38:42;628.43;;;115.97;;
50585;SDS011;36542;51.700;8.846;2023-02-12T01:41:10;569.77;;;111.83;;
50585;SDS011;36542;51.700;8.846;2023-02-12T01:43:40;647.73;;;124.10;;
50585;SDS011;36542;51.700;8.846;2023-02-12T01:46:07;604.67;;;118.33;;
50585;SDS011;36542;51.700;8.846;2023-02-12T01:48:36;616.37;;;119.20;;
50585;SDS011;36542;51.700;8.846;2023-02-12T01:51:05;606.87;;;123.20;;
50585;SDS011;36542;51.700;8.846;2023-02-12T01:53:37;675.00;;;123.33;;
50585;SDS011;36542;51.700;8.846;2023-02-12T01:56:07;653.17;;;126.03;;
50585;SDS011;36542;51.700;8.846;2023-02-12T01:58:35;688.87;;;132.67;;
50585;SDS011;36542;51.700;8.846;2023-02-12T02:01:03;668.93;;;129.73;;
50585;SDS011;36542;51.700;8.846;2023-02-12T02:03:32;662.80;;;128.97;;
50585;SDS011;36542;51.700;8.846;2023-02-12T02:06:05;715.80;;;132.87;;
50585;SDS011;36542;51.700;8.846;2023-02-12T02:08:40;720.57;;;134.60;;
50585;SDS011;36542;51.700;8.846;2023-02-12T02:11:06;749.47;;;136.40;;
50585;SDS011;36542;51.700;8.846;2023-02-12T02:13:51;683.80;;;132.60;;
50585;SDS011;36542;51.700;8.846;2023-02-12T02:16:36;841.00;;;150.60;;
50585;SDS011;36542;51.700;8.846;2023-02-12T02:19:22;727.00;;;138.87;;
50585;SDS011;36542;51.700;8.846;2023-02-12T02:24:57;933.07;;;158.73;;
50585;SDS011;36542;51.700;8.846;2023-02-12T02:27:49;1049.40;;;177.87;;
50585;SDS011;36542;51.700;8.846;2023-02-12T02:30:34;816.13;;;147.67;;
50585;SDS011;36542;51.700;8.846;2023-02-12T02:33:33;1190.20;;;185.13;;
50585;SDS011;36542;51.700;8.846;2023-02-12T02:38:44;989.80;;;170.40;;
50585;SDS011;36542;51.700;8.846;2023-02-12T02:44:07;1311.70;;;204.77;;
50585;SDS011;36542;51.700;8.846;2023-02-12T02:46:40;1542.67;;;232.73;;
50585;SDS011;36542;51.700;8.846;2023-02-12T02:49:14;1299.57;;;207.10;;
50585;SDS011;36542;51.700;8.846;2023-02-12T02:51:52;1270.80;;;200.43;;
50585;SDS011;36542;51.700;8.846;2023-02-12T02:54:29;1013.57;;;175.90;;
50585;SDS011;36542;51.700;8.846;2023-02-12T02:57:06;1266.57;;;202.57;;
50585;SDS011;36542;51.700;8.846;2023-02-12T02:59:36;1377.33;;;209.47;;
50585;SDS011;36542;51.700;8.846;2023-02-12T03:02:12;1446.53;;;214.80;;
50585;SDS011;36542;51.700;8.846;2023-02-12T03:04:43;1327.70;;;210.33;;
50585;SDS011;36542;51.700;8.846;2023-02-12T03:07:25;1489.47;;;221.80;;
50585;SDS011;36542;51.700;8.846;2023-02-12T03:10:00;1473.80;;;221.30;;
50585;SDS011;36542;51.700;8.846;2023-02-12T03:12:36;1185.43;;;187.77;;
50585;SDS011;36542;51.700;8.846;2023-02-12T03:15:17;1384.03;;;204.73;;
50585;SDS011;36542;51.700;8.846;2023-02-12T03:17:58;1387.40;;;209.70;;
50585;SDS011;36542;51.700;8.846;2023-02-12T03:20:29;1315.87;;;204.43;;
50585;SDS011;36542;51.700;8.846;2023-02-12T03:23:06;1357.63;;;201.27;;
50585;SDS011;36542;51.700;8.846;2023-02-12T03:25:47;1147.43;;;183.80;;
50585;SDS011;36542;51.700;8.846;2023-02-12T03:28:19;1236.27;;;193.40;;
50585;SDS011;36542;51.700;8.846;2023-02-12T03:36:21;1383.30;;;205.07;;
50585;SDS011;36542;51.700;8.846;2023-02-12T03:38:55;1527.80;;;225.53;;
50585;SDS011;36542;51.700;8.846;2023-02-12T03:41:27;1777.03;;;268.93;;
50585;SDS011;36542;51.700;8.846;2023-02-12T03:44:14;1487.60;;;224.40;;
50585;SDS011;36542;51.700;8.846;2023-02-12T03:46:41;1478.83;;;229.53;;
50585;SDS011;36542;51.700;8.846;2023-02-12T03:49:27;1577.13;;;230.73;;
50585;SDS011;36542;51.700;8.846;2023-02-12T03:52:00;1621.63;;;238.50;;
50585;SDS011;36542;51.700;8.846;2023-02-12T03:54:27;1519.07;;;221.53;;
50585;SDS011;36542;51.700;8.846;2023-02-12T03:56:54;1240.20;;;193.87;;
50585;SDS011;36542;51.700;8.846;2023-02-12T03:59:27;1587.13;;;230.53;;
50585;SDS011;36542;51.700;8.846;2023-02-12T04:01:54;1670.83;;;234.77;;
50585;SDS011;36542;51.700;8.846;2023-02-12T04:04:22;1509.10;;;223.80;;
50585;SDS011;36542;51.700;8.846;2023-02-12T04:06:48;1544.33;;;229.80;;
50585;SDS011;36542;51.700;8.846;2023-02-12T04:09:15;1577.27;;;241.93;;
50585;SDS011;36542;51.700;8.846;2023-02-12T04:17:16;1876.67;;;268.53;;
50585;SDS011;36542;51.700;8.846;2023-02-12T04:20:01;1918.63;;;272.67;;
50585;SDS011;36542;51.700;8.846;2023-02-12T04:25:15;1713.17;;;256.23;;
50585;SDS011;36542;51.700;8.846;2023-02-12T04:28:13;1332.30;;;207.60;;
50585;SDS011;36542;51.700;8.846;2023-02-12T04:30:58;1413.13;;;213.73;;
50585;SDS011;36542;51.700;8.846;2023-02-12T04:33:33;1555.00;;;237.90;;
50585;SDS011;36542;51.700;8.846;2023-02-12T04:36:23;1487.07;;;228.87;;
50585;SDS011;36542;51.700;8.846;2023-02-12T04:38:57;1607.03;;;241.57;;
50585;SDS011;36542;51.700;8.846;2023-02-12T04:41:26;1483.20;;;222.17;;
50585;SDS011;36542;51.700;8.846;2023-02-12T04:43:51;1499.07;;;232.50;;
50585;SDS011;36542;51.700;8.846;2023-02-12T04:46:17;1250.77;;;204.83;;
50585;SDS011;36542;51.700;8.846;2023-02-12T04:49:03;1219.67;;;203.67;;
50585;SDS011;36542;51.700;8.846;2023-02-12T04:51:28;1157.37;;;189.80;;
50585;SDS011;36542;51.700;8.846;2023-02-12T04:53:54;813.27;;;161.83;;
50585;SDS011;36542;51.700;8.846;2023-02-12T04:56:19;932.00;;;168.63;;
50585;SDS011;36542;51.700;8.846;2023-02-12T04:58:45;982.60;;;175.07;;
50585;SDS011;36542;51.700;8.846;2023-02-12T05:01:10;1141.93;;;196.33;;
50585;SDS011;36542;51.700;8.846;2023-02-12T05:03:36;1095.40;;;195.20;;
50585;SDS011;36542;51.700;8.846;2023-02-12T05:06:06;1105.53;;;195.93;;
50585;SDS011;36542;51.700;8.846;2023-02-12T05:08:32;1155.83;;;196.73;;
50585;SDS011;36542;51.700;8.846;2023-02-12T05:11:05;1094.47;;;198.40;;
50585;SDS011;36542;51.700;8.846;2023-02-12T05:13:32;1182.43;;;205.57;;
50585;SDS011;36542;51.700;8.846;2023-02-12T05:15:58;1145.67;;;202.43;;
50585;SDS011;36542;51.700;8.846;2023-02-12T05:18:24;1004.20;;;184.53;;
50585;SDS011;36542;51.700;8.846;2023-02-12T05:20:59;1109.60;;;199.80;;
50585;SDS011;36542;51.700;8.846;2023-02-12T05:23:27;1064.47;;;191.13;;
50585;SDS011;36542;51.700;8.846;2023-02-12T05:25:56;1165.27;;;203.67;;
50585;SDS011;36542;51.700;8.846;2023-02-12T05:28:23;987.50;;;184.97;;
50585;SDS011;36542;51.700;8.846;2023-02-12T05:30:48;982.50;;;184.17;;
50585;SDS011;36542;51.700;8.846;2023-02-12T05:33:14;1002.70;;;181.77;;
50585;SDS011;36542;51.700;8.846;2023-02-12T05:35:39;910.63;;;172.60;;
50585;SDS011;36542;51.700;8.846;2023-02-12T05:38:05;1056.53;;;181.93;;
50585;SDS011;36542;51.700;8.846;2023-02-12T05:40:30;1233.90;;;207.30;;
50585;SDS011;36542;51.700;8.846;2023-02-12T05:42:56;1305.27;;;217.63;;
50585;SDS011;36542;51.700;8.846;2023-02-12T05:45:21;1284.57;;;220.73;;
50585;SDS011;36542;51.700;8.846;2023-02-12T05:47:51;1053.90;;;189.47;;
50585;SDS011;36542;51.700;8.846;2023-02-12T05:50:17;997.67;;;187.80;;
50585;SDS011;36542;51.700;8.846;2023-02-12T05:52:43;1049.33;;;185.97;;
50585;SDS011;36542;51.700;8.846;2023-02-12T05:55:09;866.40;;;162.53;;
50585;SDS011;36542;51.700;8.846;2023-02-12T05:57:34;995.47;;;178.57;;
50585;SDS011;36542;51.700;8.846;2023-02-12T05:59:59;1051.67;;;182.83;;
50585;SDS011;36542;51.700;8.846;2023-02-12T06:02:25;1165.40;;;196.43;;
50585;SDS011;36542;51.700;8.846;2023-02-12T06:04:53;971.83;;;175.53;;
50585;SDS011;36542;51.700;8.846;2023-02-12T06:07:18;973.93;;;172.50;;
50585;SDS011;36542;51.700;8.846;2023-02-12T06:09:44;1052.73;;;186.83;;
50585;SDS011;36542;51.700;8.846;2023-02-12T06:12:09;1225.17;;;206.50;;
50585;SDS011;36542;51.700;8.846;2023-02-12T06:14:35;1319.80;;;210.20;;
50585;SDS011;36542;51.700;8.846;2023-02-12T06:17:00;1304.47;;;210.50;;
50585;SDS011;36542;51.700;8.846;2023-02-12T06:19:26;1328.60;;;215.73;;
50585;SDS011;36542;51.700;8.846;2023-02-12T06:21:51;1356.27;;;227.90;;
50585;SDS011;36542;51.700;8.846;2023-02-12T06:24:17;1342.73;;;213.77;;
50585;SDS011;36542;51.700;8.846;2023-02-12T06:26:43;1392.07;;;218.60;;
50585;SDS011;36542;51.700;8.846;2023-02-12T06:29:09;1361.13;;;219.87;;
50585;SDS011;36542;51.700;8.846;2023-02-12T06:31:35;1364.10;;;226.50;;
50585;SDS011;36542;51.700;8.846;2023-02-12T06:34:04;1538.03;;;229.23;;
50585;SDS011;36542;51.700;8.846;2023-02-12T06:36:33;1447.67;;;226.67;;
50585;SDS011;36542;51.700;8.846;2023-02-12T06:39:01;1271.13;;;207.47;;
50585;SDS011;36542;51.700;8.846;2023-02-12T06:41:26;1102.83;;;181.63;;
50585;SDS011;36542;51.700;8.846;2023-02-12T06:43:52;1132.47;;;186.50;;
50585;SDS011;36542;51.700;8.846;2023-02-12T06:46:18;1437.90;;;217.60;;
50585;SDS011;36542;51.700;8.846;2023-02-12T06:48:44;1243.13;;;196.30;;
50585;SDS011;36542;51.700;8.846;2023-02-12T06:51:10;1322.70;;;208.37;;
50585;SDS011;36542;51.700;8.846;2023-02-12T06:53:38;1386.83;;;216.70;;
50585;SDS011;36542;51.700;8.846;2023-02-12T06:56:04;1168.27;;;193.37;;
50585;SDS011;36542;51.700;8.846;2023-02-12T06:58:35;1151.43;;;185.33;;
50585;SDS011;36542;51.700;8.846;2023-02-12T07:01:11;1382.03;;;219.83;;
50585;SDS011;36542;51.700;8.846;2023-02-12T07:03:41;1500.67;;;237.30;;
50585;SDS011;36542;51.700;8.846;2023-02-12T07:06:11;1583.63;;;243.73;;
50585;SDS011;36542;51.700;8.846;2023-02-12T07:08:36;1491.83;;;222.40;;
50585;SDS011;36542;51.700;8.846;2023-02-12T07:11:02;1382.60;;;215.10;;
50585;SDS011;36542;51.700;8.846;2023-02-12T07:13:28;1663.00;;;246.17;;
50585;SDS011;36542;51.700;8.846;2023-02-12T07:15:54;1521.37;;;237.50;;
50585;SDS011;36542;51.700;8.846;2023-02-12T07:18:19;1346.47;;;208.93;;
50585;SDS011;36542;51.700;8.846;2023-02-12T07:20:45;1713.93;;;255.10;;
50585;SDS011;36542;51.700;8.846;2023-02-12T07:23:10;1475.60;;;227.80;;
50585;SDS011;36542;51.700;8.846;2023-02-12T07:25:36;1604.77;;;242.60;;
50585;SDS011;36542;51.700;8.846;2023-02-12T07:28:02;1474.97;;;235.03;;
50585;SDS011;36542;51.700;8.846;2023-02-12T07:30:27;1603.10;;;249.17;;
50585;SDS011;36542;51.700;8.846;2023-02-12T07:32:53;1388.80;;;225.30;;
50585;SDS011;36542;51.700;8.846;2023-02-12T07:35:18;1564.80;;;236.43;;
50585;SDS011;36542;51.700;8.846;2023-02-12T07:37:44;1372.67;;;220.93;;
50585;SDS011;36542;51.700;8.846;2023-02-12T07:40:09;1144.83;;;198.00;;
50585;SDS011;36542;51.700;8.846;2023-02-12T07:42:35;1232.43;;;209.87;;
50585;SDS011;36542;51.700;8.846;2023-02-12T07:45:01;1191.13;;;204.30;;
50585;SDS011;36542;51.700;8.846;2023-02-12T07:47:26;1144.37;;;198.07;;
50585;SDS011;36542;51.700;8.846;2023-02-12T07:49:52;1013.47;;;187.17;;
50585;SDS011;36542;51.700;8.846;2023-02-12T07:52:17;997.20;;;177.40;;
50585;SDS011;36542;51.700;8.846;2023-02-12T07:54:43;927.93;;;169.57;;
50585;SDS011;36542;51.700;8.846;2023-02-12T07:57:08;931.00;;;176.13;;
50585;SDS011;36542;51.700;8.846;2023-02-12T07:59:35;932.63;;;171.73;;
50585;SDS011;36542;51.700;8.846;2023-02-12T08:02:00;858.07;;;164.97;;
50585;SDS011;36542;51.700;8.846;2023-02-12T08:04:26;931.83;;;166.47;;
50585;SDS011;36542;51.700;8.846;2023-02-12T08:06:52;952.47;;;170.83;;
50585;SDS011;36542;51.700;8.846;2023-02-12T08:09:20;845.40;;;156.73;;
50585;SDS011;36542;51.700;8.846;2023-02-12T08:11:47;824.93;;;156.93;;
50585;SDS011;36542;51.700;8.846;2023-02-12T08:14:14;798.67;;;154.03;;
50585;SDS011;36542;51.700;8.846;2023-02-12T08:16:42;699.10;;;144.10;;
50585;SDS011;36542;51.700;8.846;2023-02-12T08:19:08;802.57;;;152.20;;
50585;SDS011;36542;51.700;8.846;2023-02-12T08:21:34;933.77;;;164.80;;
50585;SDS011;36542;51.700;8.846;2023-02-12T08:24:00;1196.03;;;192.03;;
50585;SDS011;36542;51.700;8.846;2023-02-12T08:26:27;1110.50;;;186.47;;
50585;SDS011;36542;51.700;8.846;2023-02-12T08:28:55;918.47;;;166.80;;
50585;SDS011;36542;51.700;8.846;2023-02-12T08:31:22;781.93;;;153.60;;
50585;SDS011;36542;51.700;8.846;2023-02-12T08:33:50;762.03;;;143.43;;
50585;SDS011;36542;51.700;8.846;2023-02-12T08:36:17;698.93;;;136.40;;
50585;SDS011;36542;51.700;8.846;2023-02-12T08:38:44;667.03;;;136.97;;
50585;SDS011;36542;51.700;8.846;2023-02-12T08:41:21;847.37;;;154.67;;
50585;SDS011;36542;51.700;8.846;2023-02-12T08:43:48;685.30;;;141.00;;
50585;SDS011;36542;51.700;8.846;2023-02-12T08:46:18;639.73;;;135.83;;
50585;SDS011;36542;51.700;8.846;2023-02-12T08:48:45;627.50;;;136.80;;
50585;SDS011;36542;51.700;8.846;2023-02-12T08:53:37;554.73;;;126.20;;
50585;SDS011;36542;51.700;8.846;2023-02-12T08:56:04;567.27;;;125.23;;
50585;SDS011;36542;51.700;8.846;2023-02-12T08:58:30;644.50;;;128.93;;
50585;SDS011;36542;51.700;8.846;2023-02-12T09:00:56;695.63;;;134.77;;
50585;SDS011;36542;51.700;8.846;2023-02-12T09:03:21;537.43;;;117.07;;
50585;SDS011;36542;51.700;8.846;2023-02-12T09:05:47;521.73;;;117.03;;
50585;SDS011;36542;51.700;8.846;2023-02-12T09:08:13;560.10;;;117.13;;
50585;SDS011;36542;51.700;8.846;2023-02-12T09:10:39;448.33;;;105.83;;
50585;SDS011;36542;51.700;8.846;2023-02-12T09:13:07;508.23;;;110.07;;
50585;SDS011;36542;51.700;8.846;2023-02-12T09:15:37;463.87;;;103.70;;
50585;SDS011;36542;51.700;8.846;2023-02-12T09:18:04;327.33;;;87.67;;
50585;SDS011;36542;51.700;8.846;2023-02-12T09:20:30;392.27;;;96.83;;
50585;SDS011;36542;51.700;8.846;2023-02-12T09:22:57;426.20;;;100.23;;
50585;SDS011;36542;51.700;8.846;2023-02-12T09:25:26;296.90;;;80.30;;
50585;SDS011;36542;51.700;8.846;2023-02-12T09:27:51;278.50;;;80.13;;
50585;SDS011;36542;51.700;8.846;2023-02-12T09:30:18;304.60;;;79.47;;
50585;SDS011;36542;51.700;8.846;2023-02-12T09:32:44;260.20;;;75.10;;
50585;SDS011;36542;51.700;8.846;2023-02-12T09:35:09;307.70;;;78.77;;
50585;SDS011;36542;51.700;8.846;2023-02-12T09:37:36;201.13;;;63.50;;
50585;SDS011;36542;51.700;8.846;2023-02-12T09:40:03;167.97;;;57.40;;
50585;SDS011;36542;51.700;8.846;2023-02-12T09:42:43;174.43;;;56.27;;
50585;SDS011;36542;51.700;8.846;2023-02-12T09:45:43;126.57;;;47.23;;
50585;SDS011;36542;51.700;8.846;2023-02-12T09:50:52;106.00;;;42.80;;
50585;SDS011;36542;51.700;8.846;2023-02-12T09:53:21;81.23;;;37.40;;
50585;SDS011;36542;51.700;8.846;2023-02-12T09:55:49;102.03;;;39.90;;
50585;SDS011;36542;51.700;8.846;2023-02-12T09:58:27;98.67;;;39.27;;
50585;SDS011;36542;51.700;8.846;2023-02-12T10:01:13;100.33;;;41.90;;
50585;SDS011;36542;51.700;8.846;2023-02-12T10:03:41;88.20;;;40.00;;
50585;SDS011;36542;51.700;8.846;2023-02-12T10:06:12;84.97;;;36.33;;
50585;SDS011;36542;51.700;8.846;2023-02-12T10:08:46;77.70;;;35.63;;
50585;SDS011;36542;51.700;8.846;2023-02-12T10:22:13;55.93;;;28.33;;
50585;SDS011;36542;51.700;8.846;2023-02-12T10:25:07;55.60;;;29.00;;
50585;SDS011;36542;51.700;8.846;2023-02-12T10:27:53;51.00;;;27.80;;
50585;SDS011;36542;51.700;8.846;2023-02-12T10:30:24;53.33;;;27.20;;
50585;SDS011;36542;51.700;8.846;2023-02-12T10:32:59;49.67;;;25.73;;
50585;SDS011;36542;51.700;8.846;2023-02-12T10:35:30;49.90;;;25.27;;
50585;SDS011;36542;51.700;8.846;2023-02-12T10:38:19;44.50;;;24.10;;
50585;SDS011;36542;51.700;8.846;2023-02-12T10:40:47;45.43;;;23.00;;
50585;SDS011;36542;51.700;8.846;2023-02-12T10:43:14;41.70;;;23.10;;
50585;SDS011;36542;51.700;8.846;2023-02-12T10:45:40;39.20;;;21.77;;
50585;SDS011;36542;51.700;8.846;2023-02-12T10:51:01;57.63;;;29.10;;
50585;SDS011;36542;51.700;8.846;2023-02-12T10:53:32;60.60;;;30.77;;
50585;SDS011;36542;51.700;8.846;2023-02-12T10:58:41;70.13;;;36.57;;
50585;SDS011;36542;51.700;8.846;2023-02-12T11:01:25;77.97;;;39.40;;
50585;SDS011;36542;51.700;8.846;2023-02-12T11:03:55;79.87;;;39.63;;
50585;SDS011;36542;51.700;8.846;2023-02-12T11:06:29;84.30;;;43.00;;
50585;SDS011;36542;51.700;8.846;2023-02-12T11:08:56;87.13;;;42.20;;
50585;SDS011;36542;51.700;8.846;2023-02-12T11:11:23;87.30;;;43.33;;
50585;SDS011;36542;51.700;8.846;2023-02-12T11:14:02;79.47;;;41.20;;
50585;SDS011;36542;51.700;8.846;2023-02-12T11:16:34;75.67;;;40.30;;
50585;SDS011;36542;51.700;8.846;2023-02-12T11:19:05;80.83;;;43.50;;
50585;SDS011;36542;51.700;8.846;2023-02-12T11:21:33;78.37;;;41.40;;
50585;SDS011;36542;51.700;8.846;2023-02-12T11:26:49;69.00;;;36.60;;
50585;SDS011;36542;51.700;8.846;2023-02-12T11:29:19;65.43;;;36.10;;
50585;SDS011;36542;51.700;8.846;2023-02-12T11:31:58;67.40;;;35.90;;
50585;SDS011;36542;51.700;8.846;2023-02-12T11:34:26;64.93;;;34.37;;
50585;SDS011;36542;51.700;8.846;2023-02-12T11:36:52;49.83;;;28.97;;
50585;SDS011;36542;51.700;8.846;2023-02-12T11:41:47;48.87;;;30.03;;
50585;SDS011;36542;51.700;8.846;2023-02-12T11:44:18;50.83;;;28.63;;
50585;SDS011;36542;51.700;8.846;2023-02-12T11:46:47;45.43;;;28.00;;
50585;SDS011;36542;51.700;8.846;2023-02-12T11:49:20;54.73;;;29.63;;
50585;SDS011;36542;51.700;8.846;2023-02-12T11:51:49;57.53;;;29.87;;
50585;SDS011;36542;51.700;8.846;2023-02-12T11:54:17;47.37;;;28.10;;
50585;SDS011;36542;51.700;8.846;2023-02-12T11:56:47;52.03;;;28.03;;
50585;SDS011;36542;51.700;8.846;2023-02-12T11:59:30;53.57;;;30.93;;
50585;SDS011;36542;51.700;8.846;2023-02-12T12:02:12;51.60;;;30.63;;
50585;SDS011;36542;51.700;8.846;2023-02-12T12:04:50;54.10;;;30.87;;
50585;SDS011;36542;51.700;8.846;2023-02-12T12:07:19;54.00;;;29.53;;
50585;SDS011;36542;51.700;8.846;2023-02-12T12:09:54;45.67;;;27.43;;
50585;SDS011;36542;51.700;8.846;2023-02-12T12:12:32;42.57;;;24.73;;
50585;SDS011;36542;51.700;8.846;2023-02-12T12:15:05;44.13;;;26.57;;
50585;SDS011;36542;51.700;8.846;2023-02-12T12:17:58;43.43;;;26.80;;
50585;SDS011;36542;51.700;8.846;2023-02-12T12:21:33;50.40;;;27.80;;
50585;SDS011;36542;51.700;8.846;2023-02-12T12:24:13;50.73;;;28.77;;
50585;SDS011;36542;51.700;8.846;2023-02-12T12:26:52;44.63;;;25.60;;
50585;SDS011;36542;51.700;8.846;2023-02-12T12:32:14;40.77;;;24.07;;
50585;SDS011;36542;51.700;8.846;2023-02-12T12:34:41;43.10;;;25.97;;
50585;SDS011;36542;51.700;8.846;2023-02-12T12:37:16;45.10;;;27.43;;
50585;SDS011;36542;51.700;8.846;2023-02-12T12:42:41;40.47;;;25.27;;
50585;SDS011;36542;51.700;8.846;2023-02-12T12:48:44;31.10;;;20.23;;
50585;SDS011;36542;51.700;8.846;2023-02-12T12:54:37;40.87;;;24.23;;
50585;SDS011;36542;51.700;8.846;2023-02-12T13:00:03;41.13;;;24.40;;
50585;SDS011;36542;51.700;8.846;2023-02-12T13:08:27;36.73;;;22.67;;
50585;SDS011;36542;51.700;8.846;2023-02-12T13:11:31;41.43;;;24.70;;
50585;SDS011;36542;51.700;8.846;2023-02-12T13:14:07;40.50;;;26.60;;
50585;SDS011;36542;51.700;8.846;2023-02-12T13:17:12;38.63;;;26.43;;
50585;SDS011;36542;51.700;8.846;2023-02-12T13:19:41;43.03;;;26.63;;
50585;SDS011;36542;51.700;8.846;2023-02-12T13:22:24;43.57;;;26.83;;
50585;SDS011;36542;51.700;8.846;2023-02-12T13:27:58;38.43;;;24.50;;
50585;SDS011;36542;51.700;8.846;2023-02-12T13:30:30;43.53;;;26.43;;
50585;SDS011;36542;51.700;8.846;2023-02-12T13:35:40;39.60;;;25.03;;
50585;SDS011;36542;51.700;8.846;2023-02-12T13:38:13;44.03;;;27.57;;
50585;SDS011;36542;51.700;8.846;2023-02-12T13:40:45;40.40;;;25.77;;
50585;SDS011;36542;51.700;8.846;2023-02-12T13:46:00;44.70;;;28.20;;
50585;SDS011;36542;51.700;8.846;2023-02-12T13:51:43;40.67;;;25.93;;
50585;SDS011;36542;51.700;8.846;2023-02-12T13:57:12;41.70;;;25.93;;
50585;SDS011;36542;51.700;8.846;2023-02-12T13:59:41;49.00;;;27.37;;
50585;SDS011;36542;51.700;8.846;2023-02-12T14:07:05;47.13;;;28.83;;
50585;SDS011;36542;51.700;8.846;2023-02-12T14:12:15;61.63;;;34.67;;
50585;SDS011;36542;51.700;8.846;2023-02-12T14:15:27;64.03;;;35.13;;
50585;SDS011;36542;51.700;8.846;2023-02-12T14:17:52;60.47;;;34.07;;
50585;SDS011;36542;51.700;8.846;2023-02-12T14:20:22;55.63;;;32.80;;
50585;SDS011;36542;51.700;8.846;2023-02-12T14:26:03;40.43;;;20.97;;
50585;SDS011;36542;51.700;8.846;2023-02-12T14:33:49;31.90;;;18.43;;
50585;SDS011;36542;51.700;8.846;2023-02-12T14:36:34;34.47;;;20.70;;
50585;SDS011;36542;51.700;8.846;2023-02-12T14:47:55;26.20;;;17.00;;
50585;SDS011;36542;51.700;8.846;2023-02-12T14:49:56;24.70;;;15.70;;
50585;SDS011;36542;51.700;8.846;2023-02-12T14:52:48;28.10;;;17.10;;
50585;SDS011;36542;51.700;8.846;2023-02-12T14:55:18;25.93;;;16.00;;
50585;SDS011;36542;51.700;8.846;2023-02-12T14:57:47;25.40;;;16.37;;
50585;SDS011;36542;51.700;8.846;2023-02-12T15:02:41;28.93;;;17.53;;
50585;SDS011;36542;51.700;8.846;2023-02-12T15:05:15;25.43;;;16.93;;
50585;SDS011;36542;51.700;8.846;2023-02-12T15:08:02;26.33;;;17.33;;
50585;SDS011;36542;51.700;8.846;2023-02-12T15:10:40;28.63;;;17.03;;
50585;SDS011;36542;51.700;8.846;2023-02-12T15:15:56;28.73;;;17.10;;
50585;SDS011;36542;51.700;8.846;2023-02-12T15:21:54;28.67;;;16.33;;
50585;SDS011;36542;51.700;8.846;2023-02-12T15:24:21;26.13;;;16.47;;
50585;SDS011;36542;51.700;8.846;2023-02-12T15:26:49;27.17;;;15.50;;
50585;SDS011;36542;51.700;8.846;2023-02-12T15:29:23;25.47;;;16.27;;
50585;SDS011;36542;51.700;8.846;2023-02-12T15:32:05;22.23;;;14.93;;
50585;SDS011;36542;51.700;8.846;2023-02-12T15:34:35;21.20;;;14.63;;
50585;SDS011;36542;51.700;8.846;2023-02-12T15:37:04;22.17;;;15.07;;
50585;SDS011;36542;51.700;8.846;2023-02-12T15:39:38;22.87;;;13.73;;
50585;SDS011;36542;51.700;8.846;2023-02-12T15:42:26;22.83;;;14.07;;
50585;SDS011;36542;51.700;8.846;2023-02-12T15:45:01;25.07;;;14.87;;
50585;SDS011;36542;51.700;8.846;2023-02-12T15:47:58;24.80;;;15.60;;
50585;SDS011;36542;51.700;8.846;2023-02-12T15:50:24;27.23;;;16.63;;
50585;SDS011;36542;51.700;8.846;2023-02-12T15:52:50;26.07;;;16.07;;
50585;SDS011;36542;51.700;8.846;2023-02-12T15:55:17;24.17;;;16.17;;
50585;SDS011;36542;51.700;8.846;2023-02-12T15:57:50;24.07;;;14.70;;
50585;SDS011;36542;51.700;8.846;2023-02-12T16:02:52;19.97;;;13.07;;
50585;SDS011;36542;51.700;8.846;2023-02-12T16:05:18;19.20;;;12.60;;
50585;SDS011;36542;51.700;8.846;2023-02-12T16:07:45;6.07;;;4.53;;
50585;SDS011;36542;51.700;8.846;2023-02-12T16:10:14;11.77;;;8.17;;
50585;SDS011;36542;51.700;8.846;2023-02-12T16:12:41;9.97;;;7.10;;
50585;SDS011;36542;51.700;8.846;2023-02-12T16:15:24;12.70;;;9.07;;
50585;SDS011;36542;51.700;8.846;2023-02-12T16:17:54;18.57;;;11.33;;
50585;SDS011;36542;51.700;8.846;2023-02-12T16:20:23;11.20;;;8.13;;
50585;SDS011;36542;51.700;8.846;2023-02-12T16:22:50;11.17;;;6.40;;